sensor_id;sensor_type;location;lat;lon;timestamp;P1;durP1;ratioP1;P2;durP2;ratioP2
67132;SDS011;54052;53.542;49.408;2022-10-22T00:01:34;2.92;;;0.95;;
67132;SDS011;54052;53.542;49.408;2022-10-22T00:04:01;4.50;;;0.88;;
67132;SDS011;54052;53.542;49.408;2022-10-22T00:06:27;1.65;;;0.90;;
67132;SDS011;54052;53.542;49.408;2022-10-22T00:08:54;14.77;;;1.00;;
67132;SDS011;54052;53.542;49.408;2022-10-22T00:11:20;3.67;;;1.10;;
67132;SDS011;54052;53.542;49.408;2022-10-22T00:13:47;1.42;;;0.80;;
67132;SDS011;54052;53.542;49.408;2022-10-22T00:16:13;2.80;;;1.00;;
67132;SDS011;54052;53.542;49.408;2022-10-22T00:18:40;1.92;;;0.95;;
67132;SDS011;54052;53.542;49.408;2022-10-22T00:21:06;1.98;;;1.00;;
67132;SDS011;54052;53.542;49.408;2022-10-22T00:23:34;5.03;;;1.30;;
67132;SDS011;54052;53.542;49.408;2022-10-22T00:26:00;2.13;;;1.10;;
67132;SDS011;54052;53.542;49.408;2022-10-22T00:28:26;4.63;;;1.15;;
67132;SDS011;54052;53.542;49.408;2022-10-22T00:30:55;2.00;;;1.13;;
67132;SDS011;54052;53.542;49.408;2022-10-22T00:33:25;1.15;;;0.82;;
67132;SDS011;54052;53.542;49.408;2022-10-22T00:35:52;3.58;;;1.10;;
67132;SDS011;54052;53.542;49.408;2022-10-22T00:38:18;1.30;;;1.00;;
67132;SDS011;54052;53.542;49.408;2022-10-22T00:40:45;4.82;;;1.13;;
67132;SDS011;54052;53.542;49.408;2022-10-22T00:43:12;1.83;;;0.90;;
67132;SDS011;54052;53.542;49.408;2022-10-22T00:45:40;3.47;;;1.10;;
67132;SDS011;54052;53.542;49.408;2022-10-22T00:50:44;2.13;;;1.13;;
67132;SDS011;54052;53.542;49.408;2022-10-22T00:53:16;3.08;;;1.00;;
67132;SDS011;54052;53.542;49.408;2022-10-22T00:55:46;4.50;;;1.00;;
67132;SDS011;54052;53.542;49.408;2022-10-22T00:58:16;7.25;;;1.60;;
67132;SDS011;54052;53.542;49.408;2022-10-22T01:00:46;2.05;;;1.30;;
67132;SDS011;54052;53.542;49.408;2022-10-22T01:03:12;3.00;;;1.17;;
67132;SDS011;54052;53.542;49.408;2022-10-22T01:05:44;4.40;;;1.40;;
67132;SDS011;54052;53.542;49.408;2022-10-22T01:08:29;3.88;;;1.00;;
67132;SDS011;54052;53.542;49.408;2022-10-22T01:11:12;2.47;;;0.85;;
67132;SDS011;54052;53.542;49.408;2022-10-22T01:19:35;2.63;;;1.10;;
67132;SDS011;54052;53.542;49.408;2022-10-22T01:22:31;2.97;;;1.20;;
67132;SDS011;54052;53.542;49.408;2022-10-22T01:30:34;6.13;;;1.20;;
67132;SDS011;54052;53.542;49.408;2022-10-22T01:33:04;2.33;;;1.10;;
67132;SDS011;54052;53.542;49.408;2022-10-22T01:35:34;3.58;;;1.42;;
67132;SDS011;54052;53.542;49.408;2022-10-22T01:38:04;4.13;;;1.40;;
67132;SDS011;54052;53.542;49.408;2022-10-22T01:40:34;7.53;;;1.10;;
67132;SDS011;54052;53.542;49.408;2022-10-22T01:43:03;10.90;;;1.30;;
67132;SDS011;54052;53.542;49.408;2022-10-22T01:45:38;4.15;;;1.55;;
67132;SDS011;54052;53.542;49.408;2022-10-22T01:48:13;4.30;;;2.00;;
67132;SDS011;54052;53.542;49.408;2022-10-22T01:57:01;3.97;;;1.30;;
67132;SDS011;54052;53.542;49.408;2022-10-22T02:05:06;10.73;;;1.10;;
67132;SDS011;54052;53.542;49.408;2022-10-22T02:07:47;2.95;;;1.00;;
67132;SDS011;54052;53.542;49.408;2022-10-22T02:10:17;4.88;;;1.42;;
67132;SDS011;54052;53.542;49.408;2022-10-22T02:12:45;2.42;;;1.15;;
67132;SDS011;54052;53.542;49.408;2022-10-22T02:15:15;4.70;;;1.17;;
67132;SDS011;54052;53.542;49.408;2022-10-22T02:17:44;6.55;;;1.00;;
67132;SDS011;54052;53.542;49.408;2022-10-22T02:20:13;6.63;;;1.25;;
67132;SDS011;54052;53.542;49.408;2022-10-22T02:22:44;5.20;;;1.20;;
67132;SDS011;54052;53.542;49.408;2022-10-22T02:25:11;3.08;;;1.30;;
67132;SDS011;54052;53.542;49.408;2022-10-22T02:28:12;2.58;;;1.10;;
67132;SDS011;54052;53.542;49.408;2022-10-22T02:30:45;5.13;;;1.40;;
67132;SDS011;54052;53.542;49.408;2022-10-22T02:33:36;2.72;;;1.10;;
67132;SDS011;54052;53.542;49.408;2022-10-22T02:36:07;3.38;;;1.20;;
67132;SDS011;54052;53.542;49.408;2022-10-22T02:38:34;2.08;;;0.80;;
67132;SDS011;54052;53.542;49.408;2022-10-22T02:41:02;3.03;;;1.20;;
67132;SDS011;54052;53.542;49.408;2022-10-22T02:43:28;1.50;;;0.90;;
67132;SDS011;54052;53.542;49.408;2022-10-22T02:45:55;2.35;;;0.85;;
67132;SDS011;54052;53.542;49.408;2022-10-22T02:48:21;2.55;;;1.00;;
67132;SDS011;54052;53.542;49.408;2022-10-22T02:50:47;2.75;;;1.25;;
67132;SDS011;54052;53.542;49.408;2022-10-22T02:53:14;9.50;;;1.08;;
67132;SDS011;54052;53.542;49.408;2022-10-22T02:55:40;2.15;;;0.95;;
67132;SDS011;54052;53.542;49.408;2022-10-22T02:58:06;12.82;;;1.50;;
67132;SDS011;54052;53.542;49.408;2022-10-22T03:00:33;9.05;;;1.33;;
67132;SDS011;54052;53.542;49.408;2022-10-22T03:02:59;4.93;;;1.00;;
67132;SDS011;54052;53.542;49.408;2022-10-22T03:05:25;6.93;;;1.38;;
67132;SDS011;54052;53.542;49.408;2022-10-22T03:07:52;3.90;;;1.10;;
67132;SDS011;54052;53.542;49.408;2022-10-22T03:10:18;3.08;;;1.15;;
67132;SDS011;54052;53.542;49.408;2022-10-22T03:12:45;8.52;;;1.00;;
67132;SDS011;54052;53.542;49.408;2022-10-22T03:15:11;6.50;;;1.00;;
67132;SDS011;54052;53.542;49.408;2022-10-22T03:17:37;7.70;;;0.90;;
67132;SDS011;54052;53.542;49.408;2022-10-22T03:20:03;2.95;;;0.93;;
67132;SDS011;54052;53.542;49.408;2022-10-22T03:22:31;4.20;;;1.00;;
67132;SDS011;54052;53.542;49.408;2022-10-22T03:24:59;3.80;;;1.00;;
67132;SDS011;54052;53.542;49.408;2022-10-22T03:27:32;4.72;;;1.20;;
67132;SDS011;54052;53.542;49.408;2022-10-22T03:30:03;6.15;;;1.10;;
67132;SDS011;54052;53.542;49.408;2022-10-22T03:32:30;11.35;;;1.40;;
67132;SDS011;54052;53.542;49.408;2022-10-22T03:34:57;3.60;;;1.30;;
67132;SDS011;54052;53.542;49.408;2022-10-22T03:37:24;7.90;;;1.63;;
67132;SDS011;54052;53.542;49.408;2022-10-22T03:39:51;6.80;;;1.30;;
67132;SDS011;54052;53.542;49.408;2022-10-22T03:42:19;6.38;;;1.58;;
67132;SDS011;54052;53.542;49.408;2022-10-22T03:44:46;6.22;;;1.50;;
67132;SDS011;54052;53.542;49.408;2022-10-22T03:47:12;9.82;;;1.20;;
67132;SDS011;54052;53.542;49.408;2022-10-22T03:49:39;4.75;;;1.20;;
67132;SDS011;54052;53.542;49.408;2022-10-22T03:52:07;4.30;;;1.20;;
67132;SDS011;54052;53.542;49.408;2022-10-22T03:54:35;7.38;;;1.33;;
67132;SDS011;54052;53.542;49.408;2022-10-22T03:57:03;9.00;;;1.38;;
67132;SDS011;54052;53.542;49.408;2022-10-22T03:59:37;2.80;;;1.30;;
67132;SDS011;54052;53.542;49.408;2022-10-22T04:02:05;1.30;;;0.70;;
67132;SDS011;54052;53.542;49.408;2022-10-22T04:04:31;3.97;;;0.88;;
67132;SDS011;54052;53.542;49.408;2022-10-22T04:06:58;3.65;;;0.80;;
67132;SDS011;54052;53.542;49.408;2022-10-22T04:09:24;5.13;;;1.00;;
67132;SDS011;54052;53.542;49.408;2022-10-22T04:11:51;2.08;;;0.73;;
67132;SDS011;54052;53.542;49.408;2022-10-22T04:14:17;3.53;;;0.77;;
67132;SDS011;54052;53.542;49.408;2022-10-22T04:16:43;3.38;;;1.08;;
67132;SDS011;54052;53.542;49.408;2022-10-22T04:19:10;2.40;;;0.80;;
67132;SDS011;54052;53.542;49.408;2022-10-22T04:21:36;1.75;;;0.80;;
67132;SDS011;54052;53.542;49.408;2022-10-22T04:24:02;4.13;;;0.70;;
67132;SDS011;54052;53.542;49.408;2022-10-22T04:26:29;4.10;;;0.93;;
67132;SDS011;54052;53.542;49.408;2022-10-22T04:28:55;4.80;;;1.10;;
67132;SDS011;54052;53.542;49.408;2022-10-22T04:31:22;2.67;;;0.93;;
67132;SDS011;54052;53.542;49.408;2022-10-22T04:33:54;5.50;;;0.93;;
67132;SDS011;54052;53.542;49.408;2022-10-22T04:36:22;4.30;;;0.73;;
67132;SDS011;54052;53.542;49.408;2022-10-22T04:38:53;2.90;;;0.90;;
67132;SDS011;54052;53.542;49.408;2022-10-22T04:41:25;2.05;;;1.00;;
67132;SDS011;54052;53.542;49.408;2022-10-22T04:43:56;2.45;;;0.93;;
67132;SDS011;54052;53.542;49.408;2022-10-22T04:46:23;5.22;;;0.98;;
67132;SDS011;54052;53.542;49.408;2022-10-22T04:48:51;2.35;;;0.65;;
67132;SDS011;54052;53.542;49.408;2022-10-22T04:51:18;6.47;;;1.23;;
67132;SDS011;54052;53.542;49.408;2022-10-22T04:53:46;4.50;;;2.13;;
67132;SDS011;54052;53.542;49.408;2022-10-22T04:56:20;4.10;;;1.73;;
67132;SDS011;54052;53.542;49.408;2022-10-22T04:58:53;2.95;;;1.40;;
67132;SDS011;54052;53.542;49.408;2022-10-22T05:01:22;2.63;;;1.05;;
67132;SDS011;54052;53.542;49.408;2022-10-22T05:03:51;7.10;;;1.85;;
67132;SDS011;54052;53.542;49.408;2022-10-22T05:06:19;6.97;;;2.60;;
67132;SDS011;54052;53.542;49.408;2022-10-22T05:08:50;5.78;;;1.52;;
67132;SDS011;54052;53.542;49.408;2022-10-22T05:11:20;3.15;;;1.48;;
67132;SDS011;54052;53.542;49.408;2022-10-22T05:13:48;5.25;;;1.10;;
67132;SDS011;54052;53.542;49.408;2022-10-22T05:16:14;5.28;;;2.10;;
67132;SDS011;54052;53.542;49.408;2022-10-22T05:18:41;3.67;;;1.73;;
67132;SDS011;54052;53.542;49.408;2022-10-22T05:21:10;17.23;;;1.83;;
67132;SDS011;54052;53.542;49.408;2022-10-22T05:23:38;6.47;;;1.80;;
67132;SDS011;54052;53.542;49.408;2022-10-22T05:26:05;2.50;;;1.10;;
67132;SDS011;54052;53.542;49.408;2022-10-22T05:28:33;2.33;;;1.02;;
67132;SDS011;54052;53.542;49.408;2022-10-22T05:31:00;1.65;;;0.80;;
67132;SDS011;54052;53.542;49.408;2022-10-22T05:33:28;2.35;;;0.85;;
67132;SDS011;54052;53.542;49.408;2022-10-22T05:35:55;1.92;;;0.73;;
67132;SDS011;54052;53.542;49.408;2022-10-22T05:38:22;3.38;;;1.20;;
67132;SDS011;54052;53.542;49.408;2022-10-22T05:40:59;10.27;;;1.52;;
67132;SDS011;54052;53.542;49.408;2022-10-22T05:43:26;8.88;;;1.23;;
67132;SDS011;54052;53.542;49.408;2022-10-22T05:45:53;3.50;;;1.15;;
67132;SDS011;54052;53.542;49.408;2022-10-22T05:48:19;2.95;;;0.93;;
67132;SDS011;54052;53.542;49.408;2022-10-22T05:50:45;7.10;;;1.17;;
67132;SDS011;54052;53.542;49.408;2022-10-22T05:53:15;4.07;;;1.08;;
67132;SDS011;54052;53.542;49.408;2022-10-22T05:55:43;3.33;;;0.90;;
67132;SDS011;54052;53.542;49.408;2022-10-22T05:58:10;3.92;;;1.40;;
67132;SDS011;54052;53.542;49.408;2022-10-22T06:00:37;8.60;;;1.30;;
67132;SDS011;54052;53.542;49.408;2022-10-22T06:03:04;2.88;;;0.70;;
67132;SDS011;54052;53.542;49.408;2022-10-22T06:05:33;2.70;;;0.90;;
67132;SDS011;54052;53.542;49.408;2022-10-22T06:08:01;2.20;;;1.17;;
67132;SDS011;54052;53.542;49.408;2022-10-22T06:10:28;2.58;;;0.98;;
67132;SDS011;54052;53.542;49.408;2022-10-22T06:12:55;1.63;;;0.80;;
67132;SDS011;54052;53.542;49.408;2022-10-22T06:15:21;1.75;;;0.70;;
67132;SDS011;54052;53.542;49.408;2022-10-22T06:17:47;8.23;;;0.90;;
67132;SDS011;54052;53.542;49.408;2022-10-22T06:20:14;3.38;;;1.05;;
67132;SDS011;54052;53.542;49.408;2022-10-22T06:22:40;2.67;;;0.80;;
67132;SDS011;54052;53.542;49.408;2022-10-22T06:25:07;2.80;;;1.00;;
67132;SDS011;54052;53.542;49.408;2022-10-22T06:27:33;2.95;;;1.10;;
67132;SDS011;54052;53.542;49.408;2022-10-22T06:30:00;2.85;;;0.73;;
67132;SDS011;54052;53.542;49.408;2022-10-22T06:32:26;4.13;;;1.17;;
67132;SDS011;54052;53.542;49.408;2022-10-22T06:34:52;1.88;;;0.73;;
67132;SDS011;54052;53.542;49.408;2022-10-22T06:37:19;7.25;;;1.00;;
67132;SDS011;54052;53.542;49.408;2022-10-22T06:39:45;3.60;;;0.75;;
67132;SDS011;54052;53.542;49.408;2022-10-22T06:42:11;1.48;;;0.82;;
67132;SDS011;54052;53.542;49.408;2022-10-22T06:44:38;1.92;;;0.85;;
67132;SDS011;54052;53.542;49.408;2022-10-22T06:47:04;2.88;;;0.80;;
67132;SDS011;54052;53.542;49.408;2022-10-22T06:49:30;3.50;;;0.40;;
67132;SDS011;54052;53.542;49.408;2022-10-22T06:51:57;1.65;;;0.80;;
67132;SDS011;54052;53.542;49.408;2022-10-22T06:54:23;5.90;;;0.60;;
67132;SDS011;54052;53.542;49.408;2022-10-22T06:56:49;1.08;;;0.30;;
67132;SDS011;54052;53.542;49.408;2022-10-22T06:59:16;1.73;;;0.40;;
67132;SDS011;54052;53.542;49.408;2022-10-22T07:01:42;0.77;;;0.50;;
67132;SDS011;54052;53.542;49.408;2022-10-22T07:04:08;2.20;;;0.45;;
67132;SDS011;54052;53.542;49.408;2022-10-22T07:06:35;1.05;;;0.30;;
67132;SDS011;54052;53.542;49.408;2022-10-22T07:09:02;1.52;;;0.38;;
67132;SDS011;54052;53.542;49.408;2022-10-22T07:11:30;1.63;;;0.70;;
67132;SDS011;54052;53.542;49.408;2022-10-22T07:14:03;3.08;;;0.43;;
67132;SDS011;54052;53.542;49.408;2022-10-22T07:16:30;5.22;;;0.55;;
67132;SDS011;54052;53.542;49.408;2022-10-22T07:18:56;2.42;;;0.60;;
67132;SDS011;54052;53.542;49.408;2022-10-22T07:21:22;1.33;;;0.50;;
67132;SDS011;54052;53.542;49.408;2022-10-22T07:23:50;2.70;;;0.40;;
67132;SDS011;54052;53.542;49.408;2022-10-22T07:26:17;4.30;;;0.50;;
67132;SDS011;54052;53.542;49.408;2022-10-22T07:28:45;3.00;;;0.57;;
67132;SDS011;54052;53.542;49.408;2022-10-22T07:31:12;4.25;;;0.50;;
67132;SDS011;54052;53.542;49.408;2022-10-22T07:33:40;1.42;;;0.45;;
67132;SDS011;54052;53.542;49.408;2022-10-22T07:36:07;1.90;;;0.40;;
67132;SDS011;54052;53.542;49.408;2022-10-22T07:38:35;1.45;;;0.30;;
67132;SDS011;54052;53.542;49.408;2022-10-22T07:41:02;0.65;;;0.32;;
67132;SDS011;54052;53.542;49.408;2022-10-22T07:43:28;5.85;;;0.35;;
67132;SDS011;54052;53.542;49.408;2022-10-22T07:45:55;4.25;;;0.38;;
67132;SDS011;54052;53.542;49.408;2022-10-22T07:48:21;5.35;;;0.38;;
67132;SDS011;54052;53.542;49.408;2022-10-22T07:50:49;1.15;;;0.47;;
67132;SDS011;54052;53.542;49.408;2022-10-22T07:53:16;0.75;;;0.20;;
67132;SDS011;54052;53.542;49.408;2022-10-22T07:55:43;5.90;;;0.50;;
67132;SDS011;54052;53.542;49.408;2022-10-22T07:58:09;2.85;;;0.50;;
67132;SDS011;54052;53.542;49.408;2022-10-22T08:00:35;1.17;;;0.40;;
67132;SDS011;54052;53.542;49.408;2022-10-22T08:03:02;1.10;;;0.38;;
67132;SDS011;54052;53.542;49.408;2022-10-22T08:05:29;0.82;;;0.38;;
67132;SDS011;54052;53.542;49.408;2022-10-22T08:07:55;0.57;;;0.20;;
67132;SDS011;54052;53.542;49.408;2022-10-22T08:10:22;1.05;;;0.20;;
67132;SDS011;54052;53.542;49.408;2022-10-22T08:12:48;6.13;;;0.70;;
67132;SDS011;54052;53.542;49.408;2022-10-22T08:15:14;1.33;;;0.70;;
67132;SDS011;54052;53.542;49.408;2022-10-22T08:17:41;1.00;;;0.35;;
67132;SDS011;54052;53.542;49.408;2022-10-22T08:20:07;6.35;;;0.30;;
67132;SDS011;54052;53.542;49.408;2022-10-22T08:22:34;4.63;;;0.60;;
67132;SDS011;54052;53.542;49.408;2022-10-22T08:25:00;3.88;;;0.47;;
67132;SDS011;54052;53.542;49.408;2022-10-22T08:27:26;7.72;;;1.30;;
67132;SDS011;54052;53.542;49.408;2022-10-22T08:29:53;1.30;;;0.20;;
67132;SDS011;54052;53.542;49.408;2022-10-22T08:32:19;1.83;;;0.30;;
67132;SDS011;54052;53.542;49.408;2022-10-22T08:34:46;1.15;;;0.30;;
67132;SDS011;54052;53.542;49.408;2022-10-22T08:37:12;2.17;;;0.50;;
67132;SDS011;54052;53.542;49.408;2022-10-22T08:39:39;3.70;;;0.22;;
67132;SDS011;54052;53.542;49.408;2022-10-22T08:50:29;14.90;;;0.68;;
67132;SDS011;54052;53.542;49.408;2022-10-22T08:53:02;5.45;;;0.38;;
67132;SDS011;54052;53.542;49.408;2022-10-22T08:55:32;1.55;;;0.30;;
67132;SDS011;54052;53.542;49.408;2022-10-22T08:58:07;1.02;;;0.28;;
67132;SDS011;54052;53.542;49.408;2022-10-22T09:00:44;5.57;;;0.40;;
67132;SDS011;54052;53.542;49.408;2022-10-22T09:03:27;0.55;;;0.20;;
67132;SDS011;54052;53.542;49.408;2022-10-22T09:06:24;14.68;;;0.30;;
67132;SDS011;54052;53.542;49.408;2022-10-22T09:08:52;0.98;;;0.22;;
67132;SDS011;54052;53.542;49.408;2022-10-22T09:11:35;1.67;;;0.30;;
67132;SDS011;54052;53.542;49.408;2022-10-22T09:14:04;1.35;;;0.25;;
67132;SDS011;54052;53.542;49.408;2022-10-22T09:22:39;0.98;;;0.50;;
67132;SDS011;54052;53.542;49.408;2022-10-22T09:25:17;1.35;;;0.43;;
67132;SDS011;54052;53.542;49.408;2022-10-22T09:27:46;1.20;;;0.50;;
67132;SDS011;54052;53.542;49.408;2022-10-22T09:30:21;0.40;;;0.20;;
67132;SDS011;54052;53.542;49.408;2022-10-22T09:32:58;2.30;;;0.30;;
67132;SDS011;54052;53.542;49.408;2022-10-22T09:35:51;0.70;;;0.28;;
67132;SDS011;54052;53.542;49.408;2022-10-22T09:38:48;2.13;;;0.80;;
67132;SDS011;54052;53.542;49.408;2022-10-22T09:41:16;1.65;;;0.25;;
67132;SDS011;54052;53.542;49.408;2022-10-22T09:43:47;2.88;;;0.50;;
67132;SDS011;54052;53.542;49.408;2022-10-22T09:46:16;0.80;;;0.20;;
67132;SDS011;54052;53.542;49.408;2022-10-22T09:54:38;2.03;;;0.88;;
67132;SDS011;54052;53.542;49.408;2022-10-22T09:57:14;2.15;;;0.55;;
67132;SDS011;54052;53.542;49.408;2022-10-22T09:59:42;13.50;;;1.33;;
67132;SDS011;54052;53.542;49.408;2022-10-22T10:02:14;0.80;;;0.50;;
67132;SDS011;54052;53.542;49.408;2022-10-22T10:04:52;1.30;;;0.60;;
67132;SDS011;54052;53.542;49.408;2022-10-22T10:07:24;3.45;;;0.47;;
67132;SDS011;54052;53.542;49.408;2022-10-22T10:09:55;0.93;;;0.30;;
67132;SDS011;54052;53.542;49.408;2022-10-22T10:15:16;5.93;;;1.10;;
67132;SDS011;54052;53.542;49.408;2022-10-22T10:20:35;0.90;;;0.50;;
67132;SDS011;54052;53.542;49.408;2022-10-22T10:23:25;1.23;;;0.50;;
67132;SDS011;54052;53.542;49.408;2022-10-22T10:45:23;1.58;;;0.63;;
67132;SDS011;54052;53.542;49.408;2022-10-22T10:53:50;4.95;;;0.70;;
67132;SDS011;54052;53.542;49.408;2022-10-22T11:04:56;1.60;;;0.50;;
67132;SDS011;54052;53.542;49.408;2022-10-22T11:07:50;4.18;;;0.38;;
67132;SDS011;54052;53.542;49.408;2022-10-22T11:13:03;2.15;;;0.73;;
67132;SDS011;54052;53.542;49.408;2022-10-22T11:16:00;2.40;;;0.60;;
67132;SDS011;54052;53.542;49.408;2022-10-22T11:21:34;2.55;;;0.80;;
67132;SDS011;54052;53.542;49.408;2022-10-22T11:26:46;1.40;;;0.75;;
67132;SDS011;54052;53.542;49.408;2022-10-22T11:29:18;3.53;;;1.20;;
67132;SDS011;54052;53.542;49.408;2022-10-22T11:31:49;3.85;;;1.05;;
67132;SDS011;54052;53.542;49.408;2022-10-22T11:34:19;0.90;;;0.50;;
67132;SDS011;54052;53.542;49.408;2022-10-22T11:36:49;1.52;;;0.70;;
67132;SDS011;54052;53.542;49.408;2022-10-22T11:42:21;3.65;;;0.63;;
67132;SDS011;54052;53.542;49.408;2022-10-22T11:45:05;1.13;;;0.50;;
67132;SDS011;54052;53.542;49.408;2022-10-22T12:08:45;1.15;;;0.50;;
67132;SDS011;54052;53.542;49.408;2022-10-22T12:11:19;1.67;;;0.63;;
67132;SDS011;54052;53.542;49.408;2022-10-22T12:16:42;4.80;;;0.80;;
67132;SDS011;54052;53.542;49.408;2022-10-22T12:21:36;1.33;;;0.52;;
67132;SDS011;54052;53.542;49.408;2022-10-22T12:24:04;1.38;;;0.40;;
67132;SDS011;54052;53.542;49.408;2022-10-22T12:26:32;2.35;;;0.80;;
67132;SDS011;54052;53.542;49.408;2022-10-22T12:29:02;3.33;;;1.70;;
67132;SDS011;54052;53.542;49.408;2022-10-22T12:34:02;8.10;;;1.80;;
67132;SDS011;54052;53.542;49.408;2022-10-22T12:36:29;2.60;;;1.17;;
67132;SDS011;54052;53.542;49.408;2022-10-22T12:38:59;5.30;;;1.60;;
67132;SDS011;54052;53.542;49.408;2022-10-22T12:41:30;4.25;;;2.40;;
67132;SDS011;54052;53.542;49.408;2022-10-22T12:43:58;5.85;;;2.17;;
67132;SDS011;54052;53.542;49.408;2022-10-22T12:46:29;2.33;;;1.50;;
67132;SDS011;54052;53.542;49.408;2022-10-22T12:48:58;6.47;;;2.53;;
67132;SDS011;54052;53.542;49.408;2022-10-22T12:51:26;10.80;;;2.47;;
67132;SDS011;54052;53.542;49.408;2022-10-22T12:53:55;11.57;;;5.55;;
67132;SDS011;54052;53.542;49.408;2022-10-22T12:56:24;13.70;;;8.15;;
67132;SDS011;54052;53.542;49.408;2022-10-22T12:59:00;27.42;;;7.95;;
67132;SDS011;54052;53.542;49.408;2022-10-22T13:01:56;12.95;;;7.60;;
67132;SDS011;54052;53.542;49.408;2022-10-22T13:04:34;10.07;;;5.03;;
67132;SDS011;54052;53.542;49.408;2022-10-22T13:07:03;9.70;;;3.85;;
67132;SDS011;54052;53.542;49.408;2022-10-22T13:12:27;6.60;;;2.78;;
67132;SDS011;54052;53.542;49.408;2022-10-22T13:17:46;4.88;;;2.78;;
67132;SDS011;54052;53.542;49.408;2022-10-22T13:20:16;3.20;;;2.00;;
67132;SDS011;54052;53.542;49.408;2022-10-22T13:22:54;3.85;;;1.33;;
67132;SDS011;54052;53.542;49.408;2022-10-22T13:25:26;2.60;;;1.00;;
67132;SDS011;54052;53.542;49.408;2022-10-22T13:27:58;2.40;;;1.30;;
67132;SDS011;54052;53.542;49.408;2022-10-22T13:30:49;4.72;;;1.30;;
67132;SDS011;54052;53.542;49.408;2022-10-22T13:35:56;3.22;;;0.80;;
67132;SDS011;54052;53.542;49.408;2022-10-22T13:38:24;3.33;;;1.02;;
67132;SDS011;54052;53.542;49.408;2022-10-22T13:40:51;4.50;;;1.00;;
67132;SDS011;54052;53.542;49.408;2022-10-22T13:43:18;2.42;;;0.65;;
67132;SDS011;54052;53.542;49.408;2022-10-22T13:45:45;7.35;;;1.55;;
67132;SDS011;54052;53.542;49.408;2022-10-22T13:48:14;5.38;;;2.17;;
67132;SDS011;54052;53.542;49.408;2022-10-22T13:50:41;6.03;;;1.83;;
67132;SDS011;54052;53.542;49.408;2022-10-22T13:53:09;7.90;;;1.25;;
67132;SDS011;54052;53.542;49.408;2022-10-22T13:55:44;2.28;;;0.60;;
67132;SDS011;54052;53.542;49.408;2022-10-22T13:58:11;3.30;;;0.82;;
67132;SDS011;54052;53.542;49.408;2022-10-22T14:00:44;1.27;;;0.63;;
67132;SDS011;54052;53.542;49.408;2022-10-22T14:03:14;2.65;;;0.80;;
67132;SDS011;54052;53.542;49.408;2022-10-22T14:05:42;3.95;;;1.13;;
67132;SDS011;54052;53.542;49.408;2022-10-22T14:08:11;17.90;;;1.90;;
67132;SDS011;54052;53.542;49.408;2022-10-22T14:10:40;5.95;;;1.10;;
67132;SDS011;54052;53.542;49.408;2022-10-22T14:13:11;4.80;;;1.08;;
67132;SDS011;54052;53.542;49.408;2022-10-22T14:15:38;3.00;;;1.05;;
67132;SDS011;54052;53.542;49.408;2022-10-22T14:18:06;7.93;;;1.65;;
67132;SDS011;54052;53.542;49.408;2022-10-22T14:20:36;8.73;;;1.67;;
67132;SDS011;54052;53.542;49.408;2022-10-22T14:23:12;13.60;;;1.90;;
67132;SDS011;54052;53.542;49.408;2022-10-22T14:25:41;5.18;;;1.83;;
67132;SDS011;54052;53.542;49.408;2022-10-22T14:28:08;24.85;;;1.50;;
67132;SDS011;54052;53.542;49.408;2022-10-22T14:30:35;17.38;;;1.48;;
67132;SDS011;54052;53.542;49.408;2022-10-22T14:33:08;12.10;;;1.42;;
67132;SDS011;54052;53.542;49.408;2022-10-22T14:35:44;16.15;;;1.77;;
67132;SDS011;54052;53.542;49.408;2022-10-22T14:38:12;9.75;;;1.85;;
67132;SDS011;54052;53.542;49.408;2022-10-22T14:40:39;108.20;;;56.30;;
67132;SDS011;54052;53.542;49.408;2022-10-22T14:43:26;41.13;;;19.08;;
67132;SDS011;54052;53.542;49.408;2022-10-22T14:45:56;55.20;;;21.80;;
67132;SDS011;54052;53.542;49.408;2022-10-22T14:48:23;62.67;;;30.52;;
67132;SDS011;54052;53.542;49.408;2022-10-22T14:50:49;92.63;;;41.85;;
67132;SDS011;54052;53.542;49.408;2022-10-22T14:53:16;139.52;;;56.60;;
67132;SDS011;54052;53.542;49.408;2022-10-22T14:55:43;126.75;;;58.17;;
67132;SDS011;54052;53.542;49.408;2022-10-22T14:58:11;161.18;;;74.55;;
67132;SDS011;54052;53.542;49.408;2022-10-22T15:00:41;137.30;;;63.38;;
67132;SDS011;54052;53.542;49.408;2022-10-22T15:03:09;125.30;;;64.10;;
67132;SDS011;54052;53.542;49.408;2022-10-22T15:05:39;103.25;;;49.08;;
67132;SDS011;54052;53.542;49.408;2022-10-22T15:08:12;148.80;;;63.45;;
67132;SDS011;54052;53.542;49.408;2022-10-22T15:10:39;117.40;;;55.83;;
67132;SDS011;54052;53.542;49.408;2022-10-22T15:13:06;109.85;;;52.38;;
67132;SDS011;54052;53.542;49.408;2022-10-22T15:15:32;120.75;;;69.95;;
67132;SDS011;54052;53.542;49.408;2022-10-22T15:17:59;112.22;;;66.90;;
67132;SDS011;54052;53.542;49.408;2022-10-22T15:20:25;127.35;;;61.80;;
67132;SDS011;54052;53.542;49.408;2022-10-22T15:22:52;109.13;;;57.55;;
67132;SDS011;54052;53.542;49.408;2022-10-22T15:25:18;122.20;;;58.42;;
67132;SDS011;54052;53.542;49.408;2022-10-22T15:27:44;103.75;;;53.85;;
67132;SDS011;54052;53.542;49.408;2022-10-22T15:30:11;95.43;;;55.00;;
67132;SDS011;54052;53.542;49.408;2022-10-22T15:32:38;99.93;;;50.50;;
67132;SDS011;54052;53.542;49.408;2022-10-22T15:35:05;116.22;;;57.40;;
67132;SDS011;54052;53.542;49.408;2022-10-22T15:37:32;152.38;;;84.22;;
67132;SDS011;54052;53.542;49.408;2022-10-22T15:39:59;128.60;;;84.85;;
67132;SDS011;54052;53.542;49.408;2022-10-22T15:42:25;149.52;;;82.78;;
67132;SDS011;54052;53.542;49.408;2022-10-22T15:44:56;130.95;;;78.57;;
67132;SDS011;54052;53.542;49.408;2022-10-22T15:47:23;129.82;;;72.50;;
67132;SDS011;54052;53.542;49.408;2022-10-22T15:49:53;128.57;;;71.93;;
67132;SDS011;54052;53.542;49.408;2022-10-22T15:52:19;126.82;;;67.85;;
67132;SDS011;54052;53.542;49.408;2022-10-22T15:54:46;131.32;;;69.70;;
67132;SDS011;54052;53.542;49.408;2022-10-22T15:57:12;115.60;;;63.35;;
67132;SDS011;54052;53.542;49.408;2022-10-22T15:59:39;118.45;;;65.72;;
67132;SDS011;54052;53.542;49.408;2022-10-22T16:02:05;101.93;;;56.97;;
67132;SDS011;54052;53.542;49.408;2022-10-22T16:04:32;101.20;;;56.53;;
67132;SDS011;54052;53.542;49.408;2022-10-22T16:06:58;109.25;;;56.90;;
67132;SDS011;54052;53.542;49.408;2022-10-22T16:09:25;102.80;;;57.13;;
67132;SDS011;54052;53.542;49.408;2022-10-22T16:11:53;109.78;;;62.10;;
67132;SDS011;54052;53.542;49.408;2022-10-22T16:14:20;131.18;;;71.03;;
67132;SDS011;54052;53.542;49.408;2022-10-22T16:16:49;129.48;;;70.57;;
67132;SDS011;54052;53.542;49.408;2022-10-22T16:19:18;114.05;;;67.13;;
67132;SDS011;54052;53.542;49.408;2022-10-22T16:21:47;129.27;;;70.30;;
67132;SDS011;54052;53.542;49.408;2022-10-22T16:24:15;99.22;;;47.60;;
67132;SDS011;54052;53.542;49.408;2022-10-22T16:26:42;87.15;;;43.60;;
67132;SDS011;54052;53.542;49.408;2022-10-22T16:29:08;104.35;;;48.75;;
67132;SDS011;54052;53.542;49.408;2022-10-22T16:31:37;106.90;;;48.70;;
67132;SDS011;54052;53.542;49.408;2022-10-22T16:34:05;110.85;;;48.83;;
67132;SDS011;54052;53.542;49.408;2022-10-22T16:36:32;111.72;;;45.45;;
67132;SDS011;54052;53.542;49.408;2022-10-22T16:39:00;99.75;;;43.92;;
67132;SDS011;54052;53.542;49.408;2022-10-22T16:41:28;117.70;;;63.08;;
67132;SDS011;54052;53.542;49.408;2022-10-22T16:44:00;120.22;;;62.25;;
67132;SDS011;54052;53.542;49.408;2022-10-22T16:46:28;113.93;;;60.60;;
67132;SDS011;54052;53.542;49.408;2022-10-22T16:48:56;119.07;;;61.67;;
67132;SDS011;54052;53.542;49.408;2022-10-22T16:51:23;130.23;;;61.30;;
67132;SDS011;54052;53.542;49.408;2022-10-22T16:53:51;125.97;;;61.97;;
67132;SDS011;54052;53.542;49.408;2022-10-22T16:56:19;113.47;;;57.72;;